createdAt,value
2023-04-16T00:02:12.779Z,6.50
2023-04-16T00:04:40.974Z,6.50
2023-04-16T00:07:09.307Z,6.50
2023-04-16T00:09:37.432Z,6.50
2023-04-16T00:12:06.106Z,6.50
2023-04-16T00:14:34.305Z,6.40
2023-04-16T00:17:02.439Z,6.40
2023-04-16T00:19:31.912Z,6.40
2023-04-16T00:22:00.054Z,6.40
2023-04-16T00:24:28.200Z,6.30
2023-04-16T00:26:56.999Z,6.30
2023-04-16T00:29:25.043Z,6.30
2023-04-16T00:31:53.139Z,6.20
2023-04-16T00:34:21.322Z,6.20
2023-04-16T00:36:50.901Z,6.20
2023-04-16T00:39:18.998Z,6.20
2023-04-16T00:41:47.116Z,6.20
2023-04-16T00:44:15.232Z,6.20
2023-04-16T00:46:43.634Z,6.20
2023-04-16T00:49:11.807Z,6.20
2023-04-16T00:51:40.279Z,6.20
2023-04-16T00:54:09.773Z,6.20
2023-04-16T00:56:37.995Z,6.20
2023-04-16T00:59:06.127Z,6.20
2023-04-16T01:01:34.356Z,6.20
2023-04-16T01:04:02.627Z,6.10
2023-04-16T01:06:30.751Z,6.10
2023-04-16T01:08:58.750Z,6.10
2023-04-16T01:11:28.194Z,6.10
2023-04-16T01:13:56.474Z,6.10
2023-04-16T01:16:26.676Z,6.20
2023-04-16T01:18:54.957Z,6.20
2023-04-16T01:21:24.352Z,6.20
2023-04-16T01:23:52.467Z,6.30
2023-04-16T01:26:20.462Z,6.30
2023-04-16T01:28:48.553Z,6.30
2023-04-16T01:31:16.562Z,6.30
2023-04-16T01:33:54.804Z,6.30
2023-04-16T01:36:26.840Z,6.30
2023-04-16T01:38:54.885Z,6.30
2023-04-16T01:41:22.931Z,6.40
2023-04-16T01:43:51.042Z,6.30
2023-04-16T01:46:19.858Z,6.20
2023-04-16T01:48:48.158Z,6.20
2023-04-16T01:51:16.229Z,6.20
2023-04-16T01:53:45.841Z,6.20
2023-04-16T01:56:14.040Z,6.30
2023-04-16T01:58:42.856Z,6.30
2023-04-16T02:01:11.139Z,6.30
2023-04-16T02:03:40.428Z,6.30
2023-04-16T02:06:08.746Z,6.30
2023-04-16T02:08:37.198Z,6.20
2023-04-16T02:11:06.715Z,6.20
2023-04-16T02:13:35.466Z,6.20
2023-04-16T02:16:03.668Z,6.20
2023-04-16T02:19:04.233Z,6.20
2023-04-16T02:21:35.582Z,6.20
2023-04-16T02:24:04.051Z,6.20
2023-04-16T02:26:34.084Z,6.80
2023-04-16T02:29:08.097Z,6.20
2023-04-16T02:31:42.523Z,6.20
2023-04-16T02:34:11.996Z,6.20
2023-04-16T02:36:40.233Z,6.30
2023-04-16T02:39:08.508Z,6.40
2023-04-16T02:41:38.534Z,6.30
2023-04-16T02:44:07.004Z,6.40
2023-04-16T02:46:35.063Z,6.40
2023-04-16T02:49:03.492Z,6.40
2023-04-16T02:51:33.184Z,6.40
2023-04-16T02:54:05.683Z,6.30
2023-04-16T02:56:34.310Z,6.30
2023-04-16T02:59:03.823Z,6.30
2023-04-16T03:01:32.113Z,6.30
2023-04-16T03:04:00.416Z,6.40
2023-04-16T03:06:28.531Z,6.40
2023-04-16T03:08:57.403Z,6.40
2023-04-16T03:11:25.422Z,6.40
2023-04-16T03:13:53.839Z,6.40
2023-04-16T03:16:23.487Z,6.40
2023-04-16T03:18:51.741Z,6.40
2023-04-16T03:21:19.793Z,6.40
2023-04-16T03:23:47.832Z,6.40
2023-04-16T03:26:16.032Z,6.50
2023-04-16T03:28:44.119Z,6.40
2023-04-16T03:31:12.995Z,6.40
2023-04-16T03:33:42.531Z,6.30
2023-04-16T03:36:11.112Z,6.30
2023-04-16T03:38:39.199Z,6.30
2023-04-16T03:41:07.744Z,6.30
2023-04-16T03:43:35.774Z,6.30
2023-04-16T03:46:03.958Z,6.30
2023-04-16T03:48:32.290Z,6.30
2023-04-16T03:51:01.913Z,6.20
2023-04-16T03:53:30.651Z,6.30
2023-04-16T03:55:59.224Z,6.20
2023-04-16T03:58:28.803Z,6.20
2023-04-16T04:00:57.876Z,6.20
2023-04-16T04:03:27.576Z,6.20
2023-04-16T04:05:57.013Z,6.20
2023-04-16T04:08:30.485Z,6.30
2023-04-16T04:10:58.568Z,6.20
2023-04-16T04:13:27.111Z,6.20
2023-04-16T04:15:58.042Z,6.20
2023-04-16T04:18:28.075Z,6.10
2023-04-16T04:20:56.693Z,6.10
2023-04-16T04:23:30.453Z,6.10
2023-04-16T04:25:58.659Z,6.10
2023-04-16T04:28:26.934Z,6.10
2023-04-16T04:30:55.264Z,6.10
2023-04-16T04:33:23.326Z,6.10
2023-04-16T04:35:52.833Z,6.10
2023-04-16T04:38:22.328Z,6.10
2023-04-16T04:40:53.422Z,6.10
2023-04-16T04:43:23.077Z,6.10
2023-04-16T04:45:52.077Z,6.20
2023-04-16T04:48:21.821Z,6.20
2023-04-16T04:50:52.045Z,6.20
2023-04-16T04:53:20.954Z,6.20
2023-04-16T04:55:52.330Z,6.20
2023-04-16T04:58:24.152Z,6.20
2023-04-16T05:00:52.681Z,6.20
2023-04-16T05:03:22.177Z,6.20
2023-04-16T05:05:50.429Z,6.10
2023-04-16T05:08:19.040Z,6.10
2023-04-16T05:10:47.068Z,6.10
2023-04-16T05:13:15.412Z,6.10
2023-04-16T05:15:45.726Z,6.00
2023-04-16T05:18:14.025Z,6.00
2023-04-16T05:20:43.347Z,5.90
2023-04-16T05:23:11.600Z,5.90
2023-04-16T05:25:40.837Z,6.00
2023-04-16T05:28:09.044Z,5.90
2023-04-16T05:30:37.527Z,6.00
2023-04-16T05:33:07.075Z,6.00
2023-04-16T05:35:35.854Z,6.10
2023-04-16T05:38:04.358Z,6.10
2023-04-16T05:40:32.847Z,6.10
2023-04-16T05:43:00.883Z,6.20
2023-04-16T05:45:29.397Z,6.20
2023-04-16T05:47:57.532Z,6.10
2023-04-16T05:50:27.497Z,6.10
2023-04-16T05:52:55.569Z,6.10
2023-04-16T05:55:23.766Z,6.10
2023-04-16T05:57:51.799Z,6.20
2023-04-16T06:00:20.269Z,6.20
2023-04-16T06:02:50.264Z,6.20
2023-04-16T06:05:18.840Z,6.30
2023-04-16T06:07:48.617Z,6.20
2023-04-16T06:10:16.634Z,6.20
2023-04-16T06:12:45.121Z,6.20
2023-04-16T06:15:13.258Z,6.10
2023-04-16T06:17:41.400Z,6.10
2023-04-16T06:20:10.704Z,6.10
2023-04-16T06:22:39.196Z,6.10
2023-04-16T06:25:09.505Z,6.00
2023-04-16T06:27:37.831Z,6.10
2023-04-16T06:30:06.506Z,6.00
2023-04-16T06:32:35.316Z,6.00
2023-04-16T06:35:03.513Z,6.00
2023-04-16T06:37:31.848Z,6.00
2023-04-16T06:40:00.141Z,6.00
2023-04-16T06:42:29.664Z,6.10
2023-04-16T06:44:58.153Z,6.10
2023-04-16T06:47:27.156Z,6.10
2023-04-16T06:49:55.700Z,6.20
2023-04-16T06:52:23.738Z,6.20
2023-04-16T06:54:52.297Z,6.30
2023-04-16T06:57:20.363Z,6.30
2023-04-16T06:59:50.547Z,6.30
2023-04-16T07:02:18.886Z,6.30
2023-04-16T07:04:47.226Z,6.30
2023-04-16T07:07:15.805Z,6.30
2023-04-16T07:09:44.526Z,6.30
2023-04-16T07:12:13.308Z,6.20
2023-04-16T07:14:42.153Z,6.40
2023-04-16T07:17:11.552Z,6.30
2023-04-16T07:19:39.927Z,6.40
2023-04-16T07:22:08.050Z,6.50
2023-04-16T07:24:36.672Z,6.40
2023-04-16T07:27:05.381Z,6.40
2023-04-16T07:29:33.475Z,6.30
2023-04-16T07:32:01.881Z,6.30
2023-04-16T07:34:31.495Z,6.20
2023-04-16T07:37:00.126Z,6.20
2023-04-16T07:39:28.198Z,6.40
2023-04-16T07:41:56.540Z,6.50
2023-04-16T07:44:24.561Z,6.60
2023-04-16T07:46:53.039Z,7.60
2023-04-16T07:49:21.394Z,6.50
2023-04-16T07:51:51.093Z,6.40
2023-04-16T07:54:20.210Z,6.40
2023-04-16T07:56:48.537Z,6.50
2023-04-16T07:59:23.079Z,6.50
2023-04-16T08:01:53.829Z,6.50
2023-04-16T08:04:25.006Z,6.60
2023-04-16T08:06:55.740Z,6.60
2023-04-16T08:09:24.261Z,6.70
2023-04-16T08:11:52.532Z,6.60
2023-04-16T08:14:21.179Z,6.70
2023-04-16T08:16:49.901Z,6.80
2023-04-16T08:19:18.410Z,6.80
2023-04-16T08:21:46.902Z,6.80
2023-04-16T08:24:17.337Z,6.80
2023-04-16T08:26:45.970Z,7.00
2023-04-16T08:29:16.909Z,7.10
2023-04-16T08:31:45.052Z,7.10
2023-04-16T08:34:13.499Z,7.10
2023-04-16T08:36:41.804Z,7.10
2023-04-16T08:39:10.440Z,7.20
2023-04-16T08:41:42.516Z,7.30
2023-04-16T08:44:13.292Z,7.40
2023-04-16T08:46:42.398Z,7.60
2023-04-16T08:49:16.920Z,7.70
2023-04-16T08:51:46.394Z,7.70
2023-04-16T08:54:16.202Z,7.80
2023-04-16T08:56:45.899Z,7.80
2023-04-16T08:59:14.301Z,7.80
2023-04-16T09:01:42.934Z,7.70
2023-04-16T09:04:11.383Z,8.00
2023-04-16T09:06:41.421Z,8.00
2023-04-16T09:09:09.921Z,8.00
2023-04-16T09:11:39.381Z,7.90
2023-04-16T09:14:10.421Z,8.00
2023-04-16T09:16:39.143Z,8.00
2023-04-16T09:19:07.341Z,8.00
2023-04-16T09:21:36.495Z,8.00
2023-04-16T09:24:05.298Z,7.90
2023-04-16T09:26:34.618Z,8.10
2023-04-16T09:29:02.960Z,8.10
2023-04-16T09:31:32.886Z,8.20
2023-04-16T09:34:04.749Z,8.10
2023-04-16T09:36:33.784Z,8.10
2023-04-16T09:39:02.265Z,8.10
2023-04-16T09:41:31.695Z,8.10
2023-04-16T09:44:00.527Z,8.30
2023-04-16T09:46:31.476Z,8.40
2023-04-16T09:49:05.845Z,8.40
2023-04-16T09:51:48.236Z,8.50
2023-04-16T09:54:16.548Z,8.50
2023-04-16T09:56:46.058Z,8.70
2023-04-16T09:59:17.933Z,8.90
2023-04-16T10:01:48.733Z,8.80
2023-04-16T10:04:18.316Z,8.80
2023-04-16T10:07:03.242Z,8.90
2023-04-16T10:09:33.067Z,9.00
2023-04-16T10:12:04.122Z,9.20
2023-04-16T10:14:32.421Z,9.30
2023-04-16T10:17:01.681Z,9.30
2023-04-16T10:19:32.303Z,9.30
2023-04-16T10:22:00.802Z,9.30
2023-04-16T10:24:29.714Z,9.40
2023-04-16T10:26:58.068Z,9.30
2023-04-16T10:29:26.946Z,9.30
2023-04-16T10:31:55.937Z,9.20
2023-04-16T10:34:24.658Z,9.20
2023-04-16T10:36:55.968Z,9.20
2023-04-16T10:39:25.195Z,9.10
2023-04-16T10:42:07.572Z,9.10
2023-04-16T10:44:36.292Z,8.90
2023-04-16T10:47:10.439Z,8.60
2023-04-16T10:49:38.646Z,8.60
2023-04-16T10:52:11.316Z,8.80
2023-04-16T10:54:40.632Z,8.90
2023-04-16T10:57:09.987Z,8.80
2023-04-16T10:59:40.141Z,8.70
2023-04-16T11:02:09.567Z,8.70
2023-04-16T11:04:38.693Z,8.60
2023-04-16T11:07:08.444Z,8.70
2023-04-16T11:09:54.883Z,8.70
2023-04-16T11:12:24.393Z,8.80
2023-04-16T11:14:53.846Z,8.80
2023-04-16T11:17:22.892Z,9.00
2023-04-16T11:19:51.535Z,9.00
2023-04-16T11:22:23.910Z,9.10
2023-04-16T11:24:57.108Z,9.10
2023-04-16T11:27:25.535Z,9.00
2023-04-16T11:30:01.977Z,8.80
2023-04-16T11:32:32.527Z,8.60
2023-04-16T11:35:03.896Z,8.70
2023-04-16T11:37:35.849Z,8.60
2023-04-16T11:40:06.886Z,8.60
2023-04-16T11:42:37.151Z,8.60
2023-04-16T11:45:06.249Z,8.50
2023-04-16T11:47:43.187Z,8.60
2023-04-16T11:50:22.393Z,8.70
2023-04-16T11:52:51.247Z,8.80
2023-04-16T11:55:20.901Z,8.70
2023-04-16T11:57:49.100Z,8.70
2023-04-16T12:03:10.044Z,8.60
2023-04-16T12:05:39.806Z,8.60
2023-04-16T12:08:08.566Z,8.50
2023-04-16T12:10:39.898Z,8.50
2023-04-16T12:13:12.701Z,8.50
2023-04-16T12:15:46.055Z,8.60
2023-04-16T12:18:22.778Z,8.60
2023-04-16T12:20:52.102Z,8.70
2023-04-16T12:23:24.725Z,8.60
2023-04-16T12:25:55.509Z,8.50
2023-04-16T12:28:31.222Z,8.50
2023-04-16T12:31:00.078Z,8.60
2023-04-16T12:33:28.190Z,8.70
2023-04-16T12:35:57.869Z,8.80
2023-04-16T12:38:26.868Z,8.80
2023-04-16T12:40:58.265Z,8.70
2023-04-16T12:43:27.590Z,8.70
2023-04-16T12:45:56.097Z,8.70
2023-04-16T12:48:24.215Z,8.80
2023-04-16T12:50:54.867Z,8.70
2023-04-16T12:53:23.239Z,8.70
2023-04-16T12:55:53.304Z,8.80
2023-04-16T12:58:23.241Z,8.80
2023-04-16T13:00:51.389Z,8.70
2023-04-16T13:03:21.328Z,8.80
2023-04-16T13:05:50.905Z,8.80
2023-04-16T13:08:19.251Z,8.80
2023-04-16T13:10:47.369Z,8.80
2023-04-16T13:13:16.761Z,8.60
2023-04-16T13:15:46.741Z,8.50
2023-04-16T13:18:15.378Z,8.40
2023-04-16T13:20:43.782Z,8.50
2023-04-16T13:23:13.712Z,8.50
2023-04-16T13:25:41.910Z,8.50
2023-04-16T13:28:10.677Z,8.30
2023-04-16T13:30:38.821Z,8.30
2023-04-16T13:33:08.768Z,8.40
2023-04-16T13:35:36.850Z,8.40
2023-04-16T13:38:05.733Z,8.50
2023-04-16T13:40:34.107Z,8.50
2023-04-16T13:43:02.576Z,8.40
2023-04-16T13:45:30.805Z,8.30
2023-04-16T13:47:59.256Z,8.30
2023-04-16T13:50:31.454Z,8.30
2023-04-16T13:52:59.505Z,8.40
2023-04-16T13:55:27.875Z,8.40
2023-04-16T13:57:56.338Z,8.40
2023-04-16T14:00:24.846Z,8.40
2023-04-16T14:02:53.386Z,8.30
2023-04-16T14:05:25.170Z,8.40
2023-04-16T14:07:56.303Z,8.40
2023-04-16T14:10:24.629Z,8.40
2023-04-16T14:12:52.884Z,8.30
2023-04-16T14:15:21.261Z,8.20
2023-04-16T14:17:49.667Z,8.00
2023-04-16T14:20:18.062Z,8.10
2023-04-16T14:22:48.965Z,8.10
2023-04-16T14:25:18.501Z,8.20
2023-04-16T14:27:48.162Z,8.10
2023-04-16T14:30:16.552Z,8.10
2023-04-16T14:32:44.870Z,8.10
2023-04-16T14:35:12.906Z,8.00
2023-04-16T14:37:41.375Z,7.90
2023-04-16T14:40:10.236Z,8.00
2023-04-16T14:42:39.974Z,8.00
2023-04-16T14:45:08.782Z,8.00
2023-04-16T14:47:38.201Z,8.00
2023-04-16T14:50:06.892Z,8.10
2023-04-16T14:52:34.971Z,8.20
2023-04-16T14:55:03.484Z,8.20
2023-04-16T14:57:33.373Z,8.20
2023-04-16T15:00:07.578Z,8.20
2023-04-16T15:02:58.246Z,8.20
2023-04-16T15:05:27.165Z,8.20
2023-04-16T15:07:55.221Z,8.30
2023-04-16T15:10:24.316Z,8.20
2023-04-16T15:12:52.370Z,8.20
2023-04-16T15:15:22.960Z,8.10
2023-04-16T15:17:51.877Z,8.10
2023-04-16T15:20:20.374Z,8.10
2023-04-16T15:22:48.383Z,8.10
2023-04-16T15:25:16.969Z,8.10
2023-04-16T15:27:45.121Z,8.00
2023-04-16T15:30:15.509Z,8.00
2023-04-16T15:32:45.921Z,8.10
2023-04-16T15:35:15.393Z,8.20
2023-04-16T15:37:43.456Z,8.20
2023-04-16T15:40:11.808Z,8.20
2023-04-16T15:42:39.914Z,8.20
2023-04-16T15:45:08.219Z,8.30
2023-04-16T15:47:40.199Z,8.40
2023-04-16T15:50:11.187Z,8.40
2023-04-16T15:52:41.685Z,8.40
2023-04-16T15:55:10.201Z,8.40
2023-04-16T15:57:38.617Z,8.40
2023-04-16T16:00:13.512Z,8.40
2023-04-16T16:02:44.597Z,8.40
2023-04-16T16:05:14.552Z,8.40
2023-04-16T16:07:43.945Z,8.40
2023-04-16T16:10:13.018Z,8.30
2023-04-16T16:12:42.170Z,8.30
2023-04-16T16:15:11.934Z,8.30
2023-04-16T16:17:40.857Z,8.30
2023-04-16T16:20:10.593Z,8.40
2023-04-16T16:22:42.010Z,8.40
2023-04-16T16:25:11.023Z,8.30
2023-04-16T16:27:40.807Z,8.30
2023-04-16T16:30:10.703Z,8.20
2023-04-16T16:32:41.236Z,8.20
2023-04-16T16:35:09.751Z,8.20
2023-04-16T16:37:38.491Z,8.30
2023-04-16T16:40:08.791Z,8.40
2023-04-16T16:42:37.476Z,8.40
2023-04-16T16:45:07.438Z,8.40
2023-04-16T16:47:35.631Z,8.40
2023-04-16T16:50:05.400Z,8.50
2023-04-16T16:52:33.448Z,8.50
2023-04-16T16:55:03.527Z,8.70
2023-04-16T16:57:32.908Z,8.40
2023-04-16T17:00:01.599Z,8.40
2023-04-16T17:02:31.498Z,8.40
2023-04-16T17:05:00.030Z,8.30
2023-04-16T17:07:28.034Z,8.30
2023-04-16T17:09:56.534Z,8.40
2023-04-16T17:12:24.595Z,8.30
2023-04-16T17:14:56.893Z,8.30
2023-04-16T17:17:25.124Z,8.20
2023-04-16T17:19:53.443Z,8.10
2023-04-16T17:22:21.610Z,8.00
2023-04-16T17:24:50.955Z,7.90
2023-04-16T17:27:18.944Z,7.80
2023-04-16T17:29:47.530Z,7.80
2023-04-16T17:32:16.938Z,7.80
2023-04-16T17:34:45.530Z,7.80
2023-04-16T17:37:14.045Z,7.70
2023-04-16T17:39:42.190Z,7.80
2023-04-16T17:42:10.229Z,7.90
2023-04-16T17:44:38.545Z,7.90
2023-04-16T17:47:06.674Z,8.00
2023-04-16T17:49:36.433Z,8.00
2023-04-16T17:52:04.629Z,8.00
2023-04-16T17:54:32.690Z,8.10
2023-04-16T17:57:04.373Z,8.10
2023-04-16T17:59:32.712Z,8.10
2023-04-16T18:02:01.590Z,8.10
2023-04-16T18:04:30.404Z,8.10
2023-04-16T18:07:00.331Z,8.00
2023-04-16T18:09:31.073Z,8.10
2023-04-16T18:11:59.890Z,8.10
2023-04-16T18:14:27.978Z,8.10
2023-04-16T18:16:56.293Z,8.00
2023-04-16T18:19:24.536Z,7.90
2023-04-16T18:21:52.846Z,7.80
2023-04-16T18:24:22.279Z,7.70
2023-04-16T18:26:50.937Z,7.60
2023-04-16T18:29:19.410Z,7.60
2023-04-16T18:31:47.749Z,7.60
2023-04-16T18:34:16.445Z,7.50
2023-04-16T18:36:44.560Z,7.50
2023-04-16T18:39:12.889Z,7.50
2023-04-16T18:41:43.643Z,7.50
2023-04-16T18:44:12.747Z,7.50
2023-04-16T18:46:40.823Z,7.50
2023-04-16T18:49:09.692Z,7.50
2023-04-16T18:51:37.999Z,7.60
2023-04-16T18:54:06.784Z,7.80
2023-04-16T18:56:34.920Z,7.70
2023-04-16T18:59:04.312Z,7.70
2023-04-16T19:01:32.988Z,7.50
2023-04-16T19:04:01.550Z,7.40
2023-04-16T19:06:30.228Z,7.40
2023-04-16T19:08:58.288Z,7.50
2023-04-16T19:11:27.098Z,7.50
2023-04-16T19:13:55.198Z,7.60
2023-04-16T19:16:25.438Z,7.70
2023-04-16T19:18:53.698Z,7.80
2023-04-16T19:21:21.690Z,7.90
2023-04-16T19:23:50.136Z,7.80
2023-04-16T19:26:18.245Z,7.80
2023-04-16T19:28:46.850Z,7.90
2023-04-16T19:31:14.925Z,7.90
2023-04-16T19:33:44.951Z,8.00
2023-04-16T19:36:13.106Z,7.80
2023-04-16T19:38:41.381Z,7.80
2023-04-16T19:41:09.476Z,7.70
2023-04-16T19:43:37.803Z,7.50
2023-04-16T19:46:05.992Z,7.40
2023-04-16T19:48:34.273Z,7.30
2023-04-16T19:51:05.384Z,7.30
2023-04-16T19:53:34.634Z,7.30
2023-04-16T19:56:02.816Z,7.30
2023-04-16T19:58:31.035Z,7.30
2023-04-16T20:00:59.660Z,7.20
2023-04-16T20:03:27.803Z,7.20
2023-04-16T20:05:56.369Z,7.10
2023-04-16T20:08:25.904Z,7.10
2023-04-16T20:10:54.289Z,7.20
2023-04-16T20:13:23.008Z,7.20
2023-04-16T20:15:52.584Z,7.30
2023-04-16T20:18:22.365Z,7.40
2023-04-16T20:20:50.505Z,7.40
2023-04-16T20:23:19.126Z,7.40
2023-04-16T20:25:48.641Z,7.40
2023-04-16T20:28:21.465Z,7.50
2023-04-16T20:30:50.766Z,7.50
2023-04-16T20:33:19.810Z,7.50
2023-04-16T20:35:49.024Z,7.50
2023-04-16T20:38:18.480Z,7.60
2023-04-16T20:40:48.226Z,7.60
2023-04-16T20:43:19.039Z,7.50
2023-04-16T20:45:47.227Z,7.40
2023-04-16T20:48:15.433Z,7.40
2023-04-16T20:50:44.458Z,7.40
2023-04-16T20:53:12.991Z,7.40
2023-04-16T20:55:44.017Z,7.40
2023-04-16T20:58:13.399Z,7.40
2023-04-16T21:00:41.715Z,7.40
2023-04-16T21:03:09.872Z,7.50
2023-04-16T21:05:38.822Z,7.50
2023-04-16T21:08:07.506Z,7.50
2023-04-16T21:10:36.010Z,7.40
2023-04-16T21:13:04.200Z,7.40
2023-04-16T21:15:35.039Z,7.30
2023-04-16T21:18:03.198Z,7.30
2023-04-16T21:20:31.969Z,7.10
2023-04-16T21:23:00.628Z,7.10
2023-04-16T21:25:29.437Z,7.00
2023-04-16T21:27:57.931Z,6.90
2023-04-16T21:30:26.437Z,6.90
2023-04-16T21:32:55.857Z,6.90
2023-04-16T21:35:24.067Z,6.90
2023-04-16T21:37:52.869Z,6.80
2023-04-16T21:40:21.260Z,6.80
2023-04-16T21:42:49.320Z,6.70
2023-04-16T21:45:17.399Z,6.70
2023-04-16T21:47:46.316Z,6.80
2023-04-16T21:50:15.942Z,6.90
2023-04-16T21:52:46.273Z,7.00
2023-04-16T21:55:14.825Z,7.00
2023-04-16T21:57:43.471Z,6.90
2023-04-16T22:00:13.897Z,6.90
2023-04-16T22:03:05.241Z,6.80
2023-04-16T22:05:34.723Z,6.80
2023-04-16T22:08:16.912Z,6.70
2023-04-16T22:10:51.620Z,6.70
2023-04-16T22:13:19.888Z,6.60
2023-04-16T22:15:47.914Z,6.60
2023-04-16T22:18:16.400Z,6.60
2023-04-16T22:20:47.134Z,6.60
2023-04-16T22:23:15.978Z,6.70
2023-04-16T22:25:44.227Z,6.80
2023-04-16T22:28:12.693Z,6.80
2023-04-16T22:30:41.121Z,6.90
2023-04-16T22:33:09.262Z,7.00
2023-04-16T22:35:37.919Z,7.00
2023-04-16T22:38:07.697Z,7.00
2023-04-16T22:40:36.884Z,7.00
2023-04-16T22:43:05.026Z,7.00
2023-04-16T22:45:33.316Z,7.00
2023-04-16T22:48:01.406Z,7.00
2023-04-16T22:50:31.405Z,7.10
2023-04-16T22:52:59.602Z,7.10
2023-04-16T22:55:29.461Z,7.10
2023-04-16T22:57:57.619Z,7.10
2023-04-16T23:00:25.737Z,7.10
2023-04-16T23:02:53.899Z,7.00
2023-04-16T23:05:22.471Z,6.80
2023-04-16T23:07:50.559Z,6.80
2023-04-16T23:10:18.618Z,6.80
2023-04-16T23:12:48.067Z,6.70
2023-04-16T23:15:16.443Z,6.70
2023-04-16T23:17:45.124Z,6.80
2023-04-16T23:20:14.116Z,6.90
2023-04-16T23:22:42.492Z,6.90
2023-04-16T23:25:10.882Z,6.90
2023-04-16T23:27:39.765Z,7.00
2023-04-16T23:30:09.852Z,7.00
2023-04-16T23:32:38.262Z,7.00
2023-04-16T23:35:06.726Z,7.00
2023-04-16T23:37:35.426Z,7.00
2023-04-16T23:40:04.053Z,7.00
2023-04-16T23:42:32.501Z,7.00
2023-04-16T23:45:00.577Z,7.00
2023-04-16T23:47:30.604Z,7.00
2023-04-16T23:49:58.755Z,7.00
2023-04-16T23:52:27.013Z,7.10
2023-04-16T23:54:55.043Z,7.00
2023-04-16T23:57:23.264Z,7.00
2023-04-16T23:59:51.402Z,6.80
